sensor_id;sensor_type;location;lat;lon;timestamp;temperature;humidity
21302;DHT22;10810;48.270;9.996;2022-08-01T00:01:41;22.60;80.50
21302;DHT22;10810;48.270;9.996;2022-08-01T00:04:09;22.60;81.70
21302;DHT22;10810;48.270;9.996;2022-08-01T00:09:55;22.50;80.20
21302;DHT22;10810;48.270;9.996;2022-08-01T00:12:25;22.50;80.30
21302;DHT22;10810;48.270;9.996;2022-08-01T00:15:00;22.50;82.20
21302;DHT22;10810;48.270;9.996;2022-08-01T00:17:28;22.40;81.70
21302;DHT22;10810;48.270;9.996;2022-08-01T00:19:57;22.40;79.80
21302;DHT22;10810;48.270;9.996;2022-08-01T00:22:30;22.40;80.60
21302;DHT22;10810;48.270;9.996;2022-08-01T00:25:09;22.40;81.80
21302;DHT22;10810;48.270;9.996;2022-08-01T00:27:43;22.40;81.60
21302;DHT22;10810;48.270;9.996;2022-08-01T00:30:26;22.40;81.60
21302;DHT22;10810;48.270;9.996;2022-08-01T00:32:58;22.40;82.00
21302;DHT22;10810;48.270;9.996;2022-08-01T00:35:28;21.20;80.40
21302;DHT22;10810;48.270;9.996;2022-08-01T00:37:59;22.30;80.10
21302;DHT22;10810;48.270;9.996;2022-08-01T00:40:38;22.30;80.10
21302;DHT22;10810;48.270;9.996;2022-08-01T00:43:07;22.30;82.80
21302;DHT22;10810;48.270;9.996;2022-08-01T00:45:36;22.30;82.90
21302;DHT22;10810;48.270;9.996;2022-08-01T00:48:03;22.30;81.30
21302;DHT22;10810;48.270;9.996;2022-08-01T00:50:31;22.20;79.90
21302;DHT22;10810;48.270;9.996;2022-08-01T00:52:59;22.20;79.90
21302;DHT22;10810;48.270;9.996;2022-08-01T00:55:46;22.20;80.00
21302;DHT22;10810;48.270;9.996;2022-08-01T00:58:29;22.20;80.30
21302;DHT22;10810;48.270;9.996;2022-08-01T01:01:22;22.20;81.60
21302;DHT22;10810;48.270;9.996;2022-08-01T01:04:02;22.20;82.70
21302;DHT22;10810;48.270;9.996;2022-08-01T01:06:47;22.10;82.30
21302;DHT22;10810;48.270;9.996;2022-08-01T01:09:37;22.10;80.30
21302;DHT22;10810;48.270;9.996;2022-08-01T01:12:36;22.10;80.80
21302;DHT22;10810;48.270;9.996;2022-08-01T01:15:25;21.30;81.90
21302;DHT22;10810;48.270;9.996;2022-08-01T01:19:33;22.10;81.40
21302;DHT22;10810;48.270;9.996;2022-08-01T01:20:56;22.00;82.00
21302;DHT22;10810;48.270;9.996;2022-08-01T01:23:44;22.00;81.50
21302;DHT22;10810;48.270;9.996;2022-08-01T01:26:29;22.00;78.80
21302;DHT22;10810;48.270;9.996;2022-08-01T01:29:23;22.00;78.50
21302;DHT22;10810;48.270;9.996;2022-08-01T01:31:57;21.90;80.50
21302;DHT22;10810;48.270;9.996;2022-08-01T01:34:31;21.90;79.20
21302;DHT22;10810;48.270;9.996;2022-08-01T01:37:15;22.00;80.80
21302;DHT22;10810;48.270;9.996;2022-08-01T01:40:18;21.90;79.10
21302;DHT22;10810;48.270;9.996;2022-08-01T01:42:56;22.00;79.10
21302;DHT22;10810;48.270;9.996;2022-08-01T01:45:37;21.90;80.70
21302;DHT22;10810;48.270;9.996;2022-08-01T01:48:13;21.90;80.30
21302;DHT22;10810;48.270;9.996;2022-08-01T01:50:54;21.90;79.50
21302;DHT22;10810;48.270;9.996;2022-08-01T01:53:29;21.80;80.30
21302;DHT22;10810;48.270;9.996;2022-08-01T01:56:02;21.90;81.40
21302;DHT22;10810;48.270;9.996;2022-08-01T01:58:32;21.80;78.60
21302;DHT22;10810;48.270;9.996;2022-08-01T02:01:28;21.80;79.90
21302;DHT22;10810;48.270;9.996;2022-08-01T02:03:56;22.00;80.80
21302;DHT22;10810;48.270;9.996;2022-08-01T02:06:25;21.80;77.90
21302;DHT22;10810;48.270;9.996;2022-08-01T02:09:10;21.80;77.90
21302;DHT22;10810;48.270;9.996;2022-08-01T02:11:43;21.80;80.40
21302;DHT22;10810;48.270;9.996;2022-08-01T02:14:13;21.70;78.60
21302;DHT22;10810;48.270;9.996;2022-08-01T02:16:48;21.70;78.60
21302;DHT22;10810;48.270;9.996;2022-08-01T02:19:24;21.70;78.00
21302;DHT22;10810;48.270;9.996;2022-08-01T02:21:59;21.70;80.30
21302;DHT22;10810;48.270;9.996;2022-08-01T02:24:32;21.70;78.80
21302;DHT22;10810;48.270;9.996;2022-08-01T02:27:06;21.70;78.00
21302;DHT22;10810;48.270;9.996;2022-08-01T02:29:41;21.70;77.90
21302;DHT22;10810;48.270;9.996;2022-08-01T02:32:25;21.70;79.50
21302;DHT22;10810;48.270;9.996;2022-08-01T02:35:11;21.70;78.30
21302;DHT22;10810;48.270;9.996;2022-08-01T02:37:39;21.60;80.30
21302;DHT22;10810;48.270;9.996;2022-08-01T02:40:40;21.60;78.50
21302;DHT22;10810;48.270;9.996;2022-08-01T02:43:08;21.60;80.70
21302;DHT22;10810;48.270;9.996;2022-08-01T02:45:42;21.60;80.70
21302;DHT22;10810;48.270;9.996;2022-08-01T02:48:17;21.60;80.10
21302;DHT22;10810;48.270;9.996;2022-08-01T02:51:07;21.60;78.70
21302;DHT22;10810;48.270;9.996;2022-08-01T02:53:50;21.60;80.70
21302;DHT22;10810;48.270;9.996;2022-08-01T02:56:26;21.50;78.70
21302;DHT22;10810;48.270;9.996;2022-08-01T02:59:02;21.60;81.30
21302;DHT22;10810;48.270;9.996;2022-08-01T03:01:42;21.50;78.40
21302;DHT22;10810;48.270;9.996;2022-08-01T03:04:16;21.50;79.10
21302;DHT22;10810;48.270;9.996;2022-08-01T03:06:47;21.50;81.00
21302;DHT22;10810;48.270;9.996;2022-08-01T03:09:33;21.40;81.90
21302;DHT22;10810;48.270;9.996;2022-08-01T03:12:17;21.50;81.00
21302;DHT22;10810;48.270;9.996;2022-08-01T03:15:10;21.40;78.80
21302;DHT22;10810;48.270;9.996;2022-08-01T03:18:06;21.50;80.60
21302;DHT22;10810;48.270;9.996;2022-08-01T03:20:44;21.40;81.20
21302;DHT22;10810;48.270;9.996;2022-08-01T03:23:30;21.40;81.50
21302;DHT22;10810;48.270;9.996;2022-08-01T03:26:08;21.30;80.90
21302;DHT22;10810;48.270;9.996;2022-08-01T03:28:40;21.30;81.60
21302;DHT22;10810;48.270;9.996;2022-08-01T03:31:37;21.30;82.10
21302;DHT22;10810;48.270;9.996;2022-08-01T03:34:10;21.30;81.60
21302;DHT22;10810;48.270;9.996;2022-08-01T03:36:53;21.20;81.60
21302;DHT22;10810;48.270;9.996;2022-08-01T03:39:28;21.30;79.10
21302;DHT22;10810;48.270;9.996;2022-08-01T03:42:05;21.20;79.10
21302;DHT22;10810;48.270;9.996;2022-08-01T03:44:35;21.20;81.60
21302;DHT22;10810;48.270;9.996;2022-08-01T03:47:07;21.30;80.60
21302;DHT22;10810;48.270;9.996;2022-08-01T03:49:40;21.10;79.70
21302;DHT22;10810;48.270;9.996;2022-08-01T03:52:10;21.10;80.10
21302;DHT22;10810;48.270;9.996;2022-08-01T03:54:59;21.10;81.60
21302;DHT22;10810;48.270;9.996;2022-08-01T03:57:35;21.10;81.30
21302;DHT22;10810;48.270;9.996;2022-08-01T04:00:05;21.10;80.70
21302;DHT22;10810;48.270;9.996;2022-08-01T04:02:34;21.10;79.70
21302;DHT22;10810;48.270;9.996;2022-08-01T04:05:13;21.00;79.60
21302;DHT22;10810;48.270;9.996;2022-08-01T04:07:54;21.00;82.40
21302;DHT22;10810;48.270;9.996;2022-08-01T04:10:27;21.00;81.10
21302;DHT22;10810;48.270;9.996;2022-08-01T04:12:57;21.00;80.60
21302;DHT22;10810;48.270;9.996;2022-08-01T04:15:26;21.00;82.30
21302;DHT22;10810;48.270;9.996;2022-08-01T04:17:54;20.90;82.10
21302;DHT22;10810;48.270;9.996;2022-08-01T04:20:27;21.00;80.80
21302;DHT22;10810;48.270;9.996;2022-08-01T04:23:08;20.90;82.40
21302;DHT22;10810;48.270;9.996;2022-08-01T04:25:45;20.90;81.00
21302;DHT22;10810;48.270;9.996;2022-08-01T04:28:21;20.90;81.90
21302;DHT22;10810;48.270;9.996;2022-08-01T04:31:01;20.90;80.80
21302;DHT22;10810;48.270;9.996;2022-08-01T04:33:34;20.80;82.30
21302;DHT22;10810;48.270;9.996;2022-08-01T04:36:05;20.80;80.80
21302;DHT22;10810;48.270;9.996;2022-08-01T04:38:56;20.80;82.70
21302;DHT22;10810;48.270;9.996;2022-08-01T04:41:28;20.80;82.40
21302;DHT22;10810;48.270;9.996;2022-08-01T04:44:08;20.80;82.70
21302;DHT22;10810;48.270;9.996;2022-08-01T04:46:57;20.70;81.30
21302;DHT22;10810;48.270;9.996;2022-08-01T04:49:47;20.80;82.50
21302;DHT22;10810;48.270;9.996;2022-08-01T04:52:33;20.80;82.90
21302;DHT22;10810;48.270;9.996;2022-08-01T04:55:20;20.70;80.50
21302;DHT22;10810;48.270;9.996;2022-08-01T04:58:04;20.70;81.20
21302;DHT22;10810;48.270;9.996;2022-08-01T05:00:33;20.70;81.40
21302;DHT22;10810;48.270;9.996;2022-08-01T05:03:16;20.70;81.70
21302;DHT22;10810;48.270;9.996;2022-08-01T05:05:49;20.80;83.30
21302;DHT22;10810;48.270;9.996;2022-08-01T05:08:31;20.80;81.50
21302;DHT22;10810;48.270;9.996;2022-08-01T05:11:04;20.70;81.00
21302;DHT22;10810;48.270;9.996;2022-08-01T05:13:31;20.70;83.30
21302;DHT22;10810;48.270;9.996;2022-08-01T05:16:05;20.70;82.90
21302;DHT22;10810;48.270;9.996;2022-08-01T05:18:45;20.70;83.30
21302;DHT22;10810;48.270;9.996;2022-08-01T05:21:19;20.80;83.70
21302;DHT22;10810;48.270;9.996;2022-08-01T05:23:46;20.70;83.30
21302;DHT22;10810;48.270;9.996;2022-08-01T05:26:16;20.70;81.50
21302;DHT22;10810;48.270;9.996;2022-08-01T05:28:44;20.70;83.20
21302;DHT22;10810;48.270;9.996;2022-08-01T05:31:14;20.80;84.30
21302;DHT22;10810;48.270;9.996;2022-08-01T05:33:45;20.70;83.60
21302;DHT22;10810;48.270;9.996;2022-08-01T05:36:20;20.80;85.50
21302;DHT22;10810;48.270;9.996;2022-08-01T05:38:50;20.80;85.50
21302;DHT22;10810;48.270;9.996;2022-08-01T05:41:31;20.90;85.90
21302;DHT22;10810;48.270;9.996;2022-08-01T05:44:14;20.90;84.10
21302;DHT22;10810;48.270;9.996;2022-08-01T05:47:01;20.90;85.10
21302;DHT22;10810;48.270;9.996;2022-08-01T05:49:44;21.00;86.30
21302;DHT22;10810;48.270;9.996;2022-08-01T05:52:11;21.00;86.00
21302;DHT22;10810;48.270;9.996;2022-08-01T05:54:40;21.10;85.60
21302;DHT22;10810;48.270;9.996;2022-08-01T05:57:10;21.30;87.50
21302;DHT22;10810;48.270;9.996;2022-08-01T05:59:44;21.20;85.20
21302;DHT22;10810;48.270;9.996;2022-08-01T06:02:16;21.20;87.20
21302;DHT22;10810;48.270;9.996;2022-08-01T06:04:59;21.30;86.80
21302;DHT22;10810;48.270;9.996;2022-08-01T06:07:47;21.50;87.20
21302;DHT22;10810;48.270;9.996;2022-08-01T06:10:45;21.30;87.20
21302;DHT22;10810;48.270;9.996;2022-08-01T06:13:30;21.40;87.30
21302;DHT22;10810;48.270;9.996;2022-08-01T06:16:12;21.50;85.30
21302;DHT22;10810;48.270;9.996;2022-08-01T06:18:42;21.50;86.30
21302;DHT22;10810;48.270;9.996;2022-08-01T06:21:36;21.60;85.30
21302;DHT22;10810;48.270;9.996;2022-08-01T06:24:19;21.60;86.80
21302;DHT22;10810;48.270;9.996;2022-08-01T06:26:55;21.60;85.60
21302;DHT22;10810;48.270;9.996;2022-08-01T06:29:35;21.60;84.60
21302;DHT22;10810;48.270;9.996;2022-08-01T06:32:04;21.70;85.30
21302;DHT22;10810;48.270;9.996;2022-08-01T06:34:32;21.70;83.60
21302;DHT22;10810;48.270;9.996;2022-08-01T06:37:01;21.70;83.70
21302;DHT22;10810;48.270;9.996;2022-08-01T06:39:29;21.80;84.10
21302;DHT22;10810;48.270;9.996;2022-08-01T06:41:56;21.80;86.30
21302;DHT22;10810;48.270;9.996;2022-08-01T06:44:30;21.80;86.20
21302;DHT22;10810;48.270;9.996;2022-08-01T06:47:03;21.80;84.30
21302;DHT22;10810;48.270;9.996;2022-08-01T06:49:42;21.90;83.20
21302;DHT22;10810;48.270;9.996;2022-08-01T06:52:57;21.90;85.30
21302;DHT22;10810;48.270;9.996;2022-08-01T06:55:24;21.90;84.90
21302;DHT22;10810;48.270;9.996;2022-08-01T06:57:54;21.90;83.40
21302;DHT22;10810;48.270;9.996;2022-08-01T07:00:26;22.00;85.20
21302;DHT22;10810;48.270;9.996;2022-08-01T07:02:56;22.00;84.40
21302;DHT22;10810;48.270;9.996;2022-08-01T07:05:35;22.10;85.30
21302;DHT22;10810;48.270;9.996;2022-08-01T07:08:03;22.10;85.10
21302;DHT22;10810;48.270;9.996;2022-08-01T07:10:36;22.10;84.20
21302;DHT22;10810;48.270;9.996;2022-08-01T07:13:09;22.10;84.30
21302;DHT22;10810;48.270;9.996;2022-08-01T07:16:06;22.20;83.90
21302;DHT22;10810;48.270;9.996;2022-08-01T07:19:00;22.20;82.70
21302;DHT22;10810;48.270;9.996;2022-08-01T07:21:32;22.20;84.20
21302;DHT22;10810;48.270;9.996;2022-08-01T07:24:14;22.20;84.50
21302;DHT22;10810;48.270;9.996;2022-08-01T07:26:44;22.30;84.40
21302;DHT22;10810;48.270;9.996;2022-08-01T07:29:14;22.30;84.00
21302;DHT22;10810;48.270;9.996;2022-08-01T07:31:58;22.40;84.40
21302;DHT22;10810;48.270;9.996;2022-08-01T07:34:37;21.90;83.80
21302;DHT22;10810;48.270;9.996;2022-08-01T07:37:24;22.50;83.90
21302;DHT22;10810;48.270;9.996;2022-08-01T07:39:59;22.50;84.10
21302;DHT22;10810;48.270;9.996;2022-08-01T07:42:45;22.50;84.40
21302;DHT22;10810;48.270;9.996;2022-08-01T07:45:15;22.60;83.00
21302;DHT22;10810;48.270;9.996;2022-08-01T07:48:06;22.70;82.40
21302;DHT22;10810;48.270;9.996;2022-08-01T07:50:45;22.70;82.50
21302;DHT22;10810;48.270;9.996;2022-08-01T07:53:20;22.70;83.90
21302;DHT22;10810;48.270;9.996;2022-08-01T07:58:40;22.80;83.70
21302;DHT22;10810;48.270;9.996;2022-08-01T08:01:08;22.90;82.90
21302;DHT22;10810;48.270;9.996;2022-08-01T08:03:42;22.90;81.60
21302;DHT22;10810;48.270;9.996;2022-08-01T08:06:37;22.90;83.30
21302;DHT22;10810;48.270;9.996;2022-08-01T08:09:15;23.00;82.80
21302;DHT22;10810;48.270;9.996;2022-08-01T08:11:46;23.00;81.70
21302;DHT22;10810;48.270;9.996;2022-08-01T08:14:15;23.10;82.10
21302;DHT22;10810;48.270;9.996;2022-08-01T08:16:48;22.20;81.70
21302;DHT22;10810;48.270;9.996;2022-08-01T08:22:21;23.20;82.70
21302;DHT22;10810;48.270;9.996;2022-08-01T08:25:15;23.20;80.80
21302;DHT22;10810;48.270;9.996;2022-08-01T08:27:54;23.20;81.50
21302;DHT22;10810;48.270;9.996;2022-08-01T08:30:25;23.20;82.30
21302;DHT22;10810;48.270;9.996;2022-08-01T08:33:01;23.20;80.50
21302;DHT22;10810;48.270;9.996;2022-08-01T08:35:48;23.30;81.80
21302;DHT22;10810;48.270;9.996;2022-08-01T08:38:29;22.50;81.40
21302;DHT22;10810;48.270;9.996;2022-08-01T08:41:18;23.40;81.20
21302;DHT22;10810;48.270;9.996;2022-08-01T08:44:04;23.40;81.30
21302;DHT22;10810;48.270;9.996;2022-08-01T08:46:57;23.40;80.80
21302;DHT22;10810;48.270;9.996;2022-08-01T08:49:31;23.40;81.60
21302;DHT22;10810;48.270;9.996;2022-08-01T08:52:11;23.40;82.00
21302;DHT22;10810;48.270;9.996;2022-08-01T08:54:43;23.50;81.00
21302;DHT22;10810;48.270;9.996;2022-08-01T08:57:15;23.50;82.10
21302;DHT22;10810;48.270;9.996;2022-08-01T09:00:14;23.50;81.70
21302;DHT22;10810;48.270;9.996;2022-08-01T09:02:48;23.50;80.90
21302;DHT22;10810;48.270;9.996;2022-08-01T09:05:23;23.50;81.90
21302;DHT22;10810;48.270;9.996;2022-08-01T09:07:55;23.60;81.60
21302;DHT22;10810;48.270;9.996;2022-08-01T09:10:32;23.60;80.80
21302;DHT22;10810;48.270;9.996;2022-08-01T09:13:10;23.60;81.70
21302;DHT22;10810;48.270;9.996;2022-08-01T09:15:49;23.60;81.20
21302;DHT22;10810;48.270;9.996;2022-08-01T09:18:49;23.60;81.20
21302;DHT22;10810;48.270;9.996;2022-08-01T09:23:01;23.60;81.50
21302;DHT22;10810;48.270;9.996;2022-08-01T09:24:31;23.60;81.60
21302;DHT22;10810;48.270;9.996;2022-08-01T09:27:02;23.70;80.30
21302;DHT22;10810;48.270;9.996;2022-08-01T09:30:21;23.70;81.10
21302;DHT22;10810;48.270;9.996;2022-08-01T09:33:19;23.70;79.90
21302;DHT22;10810;48.270;9.996;2022-08-01T09:35:58;23.70;81.20
21302;DHT22;10810;48.270;9.996;2022-08-01T09:38:51;23.70;81.90
21302;DHT22;10810;48.270;9.996;2022-08-01T09:41:42;23.70;80.10
21302;DHT22;10810;48.270;9.996;2022-08-01T09:44:09;23.70;80.80
21302;DHT22;10810;48.270;9.996;2022-08-01T09:47:22;23.70;79.50
21302;DHT22;10810;48.270;9.996;2022-08-01T09:49:52;23.80;79.30
21302;DHT22;10810;48.270;9.996;2022-08-01T09:52:34;23.80;80.80
21302;DHT22;10810;48.270;9.996;2022-08-01T09:55:12;23.80;80.40
21302;DHT22;10810;48.270;9.996;2022-08-01T09:58:00;23.90;82.30
21302;DHT22;10810;48.270;9.996;2022-08-01T10:00:32;23.90;81.80
21302;DHT22;10810;48.270;9.996;2022-08-01T10:03:21;23.90;79.10
21302;DHT22;10810;48.270;9.996;2022-08-01T10:06:19;23.90;80.00
21302;DHT22;10810;48.270;9.996;2022-08-01T10:08:47;23.90;78.50
21302;DHT22;10810;48.270;9.996;2022-08-01T10:11:15;23.90;78.40
21302;DHT22;10810;48.270;9.996;2022-08-01T10:13:54;23.90;79.40
21302;DHT22;10810;48.270;9.996;2022-08-01T10:16:24;23.90;80.10
21302;DHT22;10810;48.270;9.996;2022-08-01T10:18:53;24.00;80.40
21302;DHT22;10810;48.270;9.996;2022-08-01T10:21:23;24.00;82.00
21302;DHT22;10810;48.270;9.996;2022-08-01T10:23:58;24.10;81.10
21302;DHT22;10810;48.270;9.996;2022-08-01T10:26:42;24.10;82.10
21302;DHT22;10810;48.270;9.996;2022-08-01T10:29:26;24.10;82.40
21302;DHT22;10810;48.270;9.996;2022-08-01T10:31:57;24.10;81.60
21302;DHT22;10810;48.270;9.996;2022-08-01T10:34:37;24.10;81.00
21302;DHT22;10810;48.270;9.996;2022-08-01T10:37:05;24.10;81.00
21302;DHT22;10810;48.270;9.996;2022-08-01T10:39:35;24.20;81.30
21302;DHT22;10810;48.270;9.996;2022-08-01T10:42:16;24.20;81.40
21302;DHT22;10810;48.270;9.996;2022-08-01T10:44:54;24.20;80.30
21302;DHT22;10810;48.270;9.996;2022-08-01T10:47:47;24.20;81.00
21302;DHT22;10810;48.270;9.996;2022-08-01T10:50:27;24.20;80.60
21302;DHT22;10810;48.270;9.996;2022-08-01T10:53:20;24.20;80.20
21302;DHT22;10810;48.270;9.996;2022-08-01T10:55:50;24.30;79.30
21302;DHT22;10810;48.270;9.996;2022-08-01T10:58:54;24.30;78.80
21302;DHT22;10810;48.270;9.996;2022-08-01T11:01:30;24.30;79.90
21302;DHT22;10810;48.270;9.996;2022-08-01T11:04:40;24.30;78.50
21302;DHT22;10810;48.270;9.996;2022-08-01T11:07:23;24.30;78.50
21302;DHT22;10810;48.270;9.996;2022-08-01T11:10:04;24.30;78.60
21302;DHT22;10810;48.270;9.996;2022-08-01T11:12:44;24.30;79.90
21302;DHT22;10810;48.270;9.996;2022-08-01T11:15:24;24.30;80.80
21302;DHT22;10810;48.270;9.996;2022-08-01T11:17:57;24.30;79.50
21302;DHT22;10810;48.270;9.996;2022-08-01T11:20:35;24.30;79.10
21302;DHT22;10810;48.270;9.996;2022-08-01T11:23:24;24.40;80.40
21302;DHT22;10810;48.270;9.996;2022-08-01T11:26:15;24.40;79.00
21302;DHT22;10810;48.270;9.996;2022-08-01T11:28:44;24.40;78.90
21302;DHT22;10810;48.270;9.996;2022-08-01T11:31:30;24.40;79.00
21302;DHT22;10810;48.270;9.996;2022-08-01T11:34:02;24.40;78.90
21302;DHT22;10810;48.270;9.996;2022-08-01T11:36:29;24.50;78.90
21302;DHT22;10810;48.270;9.996;2022-08-01T11:39:16;24.50;78.70
21302;DHT22;10810;48.270;9.996;2022-08-01T11:41:46;24.50;78.10
21302;DHT22;10810;48.270;9.996;2022-08-01T11:44:27;24.50;77.90
21302;DHT22;10810;48.270;9.996;2022-08-01T11:47:11;24.50;78.90
21302;DHT22;10810;48.270;9.996;2022-08-01T11:56:04;24.50;77.20
21302;DHT22;10810;48.270;9.996;2022-08-01T11:58:36;24.50;77.40
21302;DHT22;10810;48.270;9.996;2022-08-01T12:01:15;24.50;77.50
21302;DHT22;10810;48.270;9.996;2022-08-01T12:03:57;24.50;78.70
21302;DHT22;10810;48.270;9.996;2022-08-01T12:06:32;24.50;78.70
21302;DHT22;10810;48.270;9.996;2022-08-01T12:09:18;24.60;79.40
21302;DHT22;10810;48.270;9.996;2022-08-01T12:11:52;24.60;78.60
21302;DHT22;10810;48.270;9.996;2022-08-01T12:15:03;24.60;80.20
21302;DHT22;10810;48.270;9.996;2022-08-01T12:17:31;24.50;81.60
21302;DHT22;10810;48.270;9.996;2022-08-01T12:20:02;24.50;80.60
21302;DHT22;10810;48.270;9.996;2022-08-01T12:24:05;24.50;81.20
21302;DHT22;10810;48.270;9.996;2022-08-01T12:25:48;24.50;82.90
21302;DHT22;10810;48.270;9.996;2022-08-01T12:31:49;24.50;82.50
21302;DHT22;10810;48.270;9.996;2022-08-01T12:34:44;24.50;83.10
21302;DHT22;10810;48.270;9.996;2022-08-01T12:37:15;24.40;85.00
21302;DHT22;10810;48.270;9.996;2022-08-01T12:40:14;24.40;85.20
21302;DHT22;10810;48.270;9.996;2022-08-01T12:43:03;24.40;85.20
21302;DHT22;10810;48.270;9.996;2022-08-01T12:45:33;24.40;86.80
21302;DHT22;10810;48.270;9.996;2022-08-01T12:48:37;24.40;86.80
21302;DHT22;10810;48.270;9.996;2022-08-01T12:51:26;24.40;86.10
21302;DHT22;10810;48.270;9.996;2022-08-01T12:54:03;24.40;86.20
21302;DHT22;10810;48.270;9.996;2022-08-01T12:56:49;24.40;87.80
21302;DHT22;10810;48.270;9.996;2022-08-01T12:59:35;24.20;88.00
21302;DHT22;10810;48.270;9.996;2022-08-01T13:02:30;24.40;88.80
21302;DHT22;10810;48.270;9.996;2022-08-01T13:08:13;24.40;89.70
21302;DHT22;10810;48.270;9.996;2022-08-01T13:10:45;24.40;90.30
21302;DHT22;10810;48.270;9.996;2022-08-01T13:13:18;24.40;89.90
21302;DHT22;10810;48.270;9.996;2022-08-01T13:15:46;24.40;90.20
21302;DHT22;10810;48.270;9.996;2022-08-01T13:18:28;24.40;90.80
21302;DHT22;10810;48.270;9.996;2022-08-01T13:21:08;24.30;90.60
21302;DHT22;10810;48.270;9.996;2022-08-01T13:24:12;24.30;90.90
21302;DHT22;10810;48.270;9.996;2022-08-01T13:26:50;24.30;90.90
21302;DHT22;10810;48.270;9.996;2022-08-01T13:29:22;24.30;91.40
21302;DHT22;10810;48.270;9.996;2022-08-01T13:31:55;24.30;91.60
21302;DHT22;10810;48.270;9.996;2022-08-01T13:34:30;24.30;91.20
21302;DHT22;10810;48.270;9.996;2022-08-01T13:36:59;24.30;91.30
21302;DHT22;10810;48.270;9.996;2022-08-01T13:39:29;24.30;91.40
21302;DHT22;10810;48.270;9.996;2022-08-01T13:42:10;24.30;91.30
21302;DHT22;10810;48.270;9.996;2022-08-01T13:44:39;24.30;91.40
21302;DHT22;10810;48.270;9.996;2022-08-01T13:47:18;24.30;91.80
21302;DHT22;10810;48.270;9.996;2022-08-01T13:49:54;24.30;92.00
21302;DHT22;10810;48.270;9.996;2022-08-01T13:52:37;24.30;91.30
21302;DHT22;10810;48.270;9.996;2022-08-01T13:55:09;24.30;92.00
21302;DHT22;10810;48.270;9.996;2022-08-01T13:57:57;24.30;91.60
21302;DHT22;10810;48.270;9.996;2022-08-01T14:00:40;24.20;91.80
21302;DHT22;10810;48.270;9.996;2022-08-01T14:03:10;24.20;91.80
21302;DHT22;10810;48.270;9.996;2022-08-01T14:05:37;24.20;91.80
21302;DHT22;10810;48.270;9.996;2022-08-01T14:09:08;24.20;91.80
21302;DHT22;10810;48.270;9.996;2022-08-01T14:11:31;24.20;92.10
21302;DHT22;10810;48.270;9.996;2022-08-01T14:13:58;24.20;92.20
21302;DHT22;10810;48.270;9.996;2022-08-01T14:16:35;24.20;91.40
21302;DHT22;10810;48.270;9.996;2022-08-01T14:19:06;24.20;91.60
21302;DHT22;10810;48.270;9.996;2022-08-01T14:21:39;23.40;91.40
21302;DHT22;10810;48.270;9.996;2022-08-01T14:24:11;24.20;91.80
21302;DHT22;10810;48.270;9.996;2022-08-01T14:29:37;24.30;91.30
21302;DHT22;10810;48.270;9.996;2022-08-01T14:32:09;24.30;91.60
21302;DHT22;10810;48.270;9.996;2022-08-01T14:34:46;24.30;91.50
21302;DHT22;10810;48.270;9.996;2022-08-01T14:37:20;24.30;91.50
21302;DHT22;10810;48.270;9.996;2022-08-01T14:40:08;24.30;91.00
21302;DHT22;10810;48.270;9.996;2022-08-01T14:42:45;24.30;91.30
21302;DHT22;10810;48.270;9.996;2022-08-01T14:45:34;24.30;91.70
21302;DHT22;10810;48.270;9.996;2022-08-01T14:48:17;24.30;91.40
21302;DHT22;10810;48.270;9.996;2022-08-01T14:50:55;24.30;91.50
21302;DHT22;10810;48.270;9.996;2022-08-01T14:53:36;24.40;91.70
21302;DHT22;10810;48.270;9.996;2022-08-01T14:56:06;24.40;91.30
21302;DHT22;10810;48.270;9.996;2022-08-01T14:58:43;24.40;90.30
21302;DHT22;10810;48.270;9.996;2022-08-01T15:01:20;24.40;91.00
21302;DHT22;10810;48.270;9.996;2022-08-01T15:04:11;24.40;90.70
21302;DHT22;10810;48.270;9.996;2022-08-01T15:07:04;24.40;91.10
21302;DHT22;10810;48.270;9.996;2022-08-01T15:09:41;24.40;90.80
21302;DHT22;10810;48.270;9.996;2022-08-01T15:12:12;24.40;91.60
21302;DHT22;10810;48.270;9.996;2022-08-01T15:14:47;24.40;92.30
21302;DHT22;10810;48.270;9.996;2022-08-01T15:17:34;24.40;92.40
21302;DHT22;10810;48.270;9.996;2022-08-01T15:20:12;24.40;92.50
21302;DHT22;10810;48.270;9.996;2022-08-01T15:22:44;24.40;92.00
21302;DHT22;10810;48.270;9.996;2022-08-01T15:25:21;24.40;91.80
21302;DHT22;10810;48.270;9.996;2022-08-01T15:27:52;24.40;91.90
21302;DHT22;10810;48.270;9.996;2022-08-01T15:30:40;24.30;91.60
21302;DHT22;10810;48.270;9.996;2022-08-01T15:33:14;24.30;91.30
21302;DHT22;10810;48.270;9.996;2022-08-01T15:35:50;24.30;90.70
21302;DHT22;10810;48.270;9.996;2022-08-01T15:38:21;24.30;90.80
21302;DHT22;10810;48.270;9.996;2022-08-01T15:41:01;24.30;90.80
21302;DHT22;10810;48.270;9.996;2022-08-01T15:43:28;24.30;90.80
21302;DHT22;10810;48.270;9.996;2022-08-01T15:45:57;24.20;90.50
21302;DHT22;10810;48.270;9.996;2022-08-01T15:48:29;24.20;90.40
21302;DHT22;10810;48.270;9.996;2022-08-01T15:51:17;24.20;90.60
21302;DHT22;10810;48.270;9.996;2022-08-01T15:54:00;24.20;90.60
21302;DHT22;10810;48.270;9.996;2022-08-01T15:56:48;23.90;90.60
21302;DHT22;10810;48.270;9.996;2022-08-01T15:59:17;24.10;91.00
21302;DHT22;10810;48.270;9.996;2022-08-01T16:02:00;24.10;90.30
21302;DHT22;10810;48.270;9.996;2022-08-01T16:04:31;24.10;90.20
21302;DHT22;10810;48.270;9.996;2022-08-01T16:07:02;24.10;90.60
21302;DHT22;10810;48.270;9.996;2022-08-01T16:09:55;24.10;90.50
21302;DHT22;10810;48.270;9.996;2022-08-01T16:12:27;24.10;90.90
21302;DHT22;10810;48.270;9.996;2022-08-01T16:14:55;24.10;90.70
21302;DHT22;10810;48.270;9.996;2022-08-01T16:17:24;24.10;90.70
21302;DHT22;10810;48.270;9.996;2022-08-01T16:20:03;24.10;91.00
21302;DHT22;10810;48.270;9.996;2022-08-01T16:22:32;24.10;90.40
21302;DHT22;10810;48.270;9.996;2022-08-01T16:25:01;24.10;90.40
21302;DHT22;10810;48.270;9.996;2022-08-01T16:27:35;24.10;90.50
21302;DHT22;10810;48.270;9.996;2022-08-01T16:30:17;24.10;91.30
21302;DHT22;10810;48.270;9.996;2022-08-01T16:32:45;24.10;91.10
21302;DHT22;10810;48.270;9.996;2022-08-01T16:35:38;24.10;91.20
21302;DHT22;10810;48.270;9.996;2022-08-01T16:38:42;24.10;91.60
21302;DHT22;10810;48.270;9.996;2022-08-01T16:41:29;24.10;91.50
21302;DHT22;10810;48.270;9.996;2022-08-01T16:45:17;24.10;91.50
21302;DHT22;10810;48.270;9.996;2022-08-01T16:47:14;23.90;91.90
21302;DHT22;10810;48.270;9.996;2022-08-01T16:49:46;24.10;91.20
21302;DHT22;10810;48.270;9.996;2022-08-01T16:52:14;24.10;91.30
21302;DHT22;10810;48.270;9.996;2022-08-01T16:54:42;24.10;91.00
21302;DHT22;10810;48.270;9.996;2022-08-01T16:57:25;24.10;91.00
21302;DHT22;10810;48.270;9.996;2022-08-01T17:00:03;24.10;91.40
21302;DHT22;10810;48.270;9.996;2022-08-01T17:02:33;24.10;91.20
21302;DHT22;10810;48.270;9.996;2022-08-01T17:05:16;24.10;91.30
21302;DHT22;10810;48.270;9.996;2022-08-01T17:07:48;24.10;91.50